createdAt,value
2023-05-20T00:00:37.893Z,51.33
2023-05-20T00:01:37.848Z,51.34
2023-05-20T00:02:36.813Z,51.36
2023-05-20T00:03:36.891Z,51.35
2023-05-20T00:05:36.897Z,51.35
2023-05-20T00:06:37.768Z,51.38
2023-05-20T00:07:36.843Z,51.35
2023-05-20T00:08:37.782Z,51.35
2023-05-20T00:09:38.093Z,51.36
2023-05-20T00:10:37.793Z,51.40
2023-05-20T00:11:37.004Z,51.42
2023-05-20T00:12:36.779Z,51.42
2023-05-20T00:13:36.797Z,51.38
2023-05-20T00:14:36.762Z,51.38
2023-05-20T00:15:38.005Z,51.37
2023-05-20T00:16:36.858Z,51.36
2023-05-20T00:17:37.806Z,51.37
2023-05-20T00:18:36.872Z,51.40
2023-05-20T00:19:36.767Z,51.39
2023-05-20T00:20:36.795Z,51.35
2023-05-20T00:21:37.800Z,51.39
2023-05-20T00:22:36.884Z,51.43
2023-05-20T00:23:37.791Z,51.42
2023-05-20T00:24:37.787Z,51.41
2023-05-20T00:25:37.824Z,51.40
2023-05-20T00:26:36.870Z,51.39
2023-05-20T00:27:37.047Z,51.40
2023-05-20T00:28:37.050Z,51.40
2023-05-20T00:29:37.025Z,51.41
2023-05-20T00:30:36.887Z,51.41
2023-05-20T00:31:36.865Z,51.40
2023-05-20T00:32:36.839Z,51.44
2023-05-20T00:33:37.978Z,51.41
2023-05-20T00:34:37.900Z,51.42
2023-05-20T00:35:37.049Z,51.44
2023-05-20T00:36:36.798Z,51.41
2023-05-20T00:37:37.834Z,51.43
2023-05-20T00:38:37.790Z,51.43
2023-05-20T00:39:37.892Z,51.43
2023-05-20T00:40:36.802Z,51.41
2023-05-20T00:41:36.864Z,51.44
2023-05-20T00:42:37.078Z,51.42
2023-05-20T00:43:36.792Z,51.42
2023-05-20T00:44:36.818Z,51.42
2023-05-20T00:45:37.894Z,51.43
2023-05-20T00:46:36.887Z,51.43
2023-05-20T00:47:36.922Z,51.44
2023-05-20T00:48:36.782Z,51.45
2023-05-20T00:49:37.772Z,51.42
2023-05-20T00:50:37.799Z,51.45
2023-05-20T00:51:36.777Z,51.43
2023-05-20T00:52:36.776Z,51.39
2023-05-20T00:53:37.776Z,51.43
2023-05-20T00:54:37.756Z,51.43
2023-05-20T00:55:36.771Z,51.46
2023-05-20T00:56:37.742Z,51.44
2023-05-20T00:57:36.913Z,51.45
2023-05-20T00:58:37.007Z,51.45
2023-05-20T00:59:37.750Z,51.46
2023-05-20T01:00:37.916Z,51.47
2023-05-20T01:01:38.013Z,51.48
2023-05-20T01:02:36.825Z,51.45
2023-05-20T01:03:36.852Z,51.44
2023-05-20T01:04:36.709Z,51.45
2023-05-20T01:05:38.130Z,51.46
2023-05-20T01:06:36.938Z,51.47
2023-05-20T01:07:38.531Z,51.42
2023-05-20T01:08:36.736Z,51.46
2023-05-20T01:09:37.703Z,51.48
2023-05-20T01:10:36.785Z,51.48
2023-05-20T01:11:37.690Z,51.46
2023-05-20T01:12:36.882Z,51.50
2023-05-20T01:13:36.772Z,51.46
2023-05-20T01:14:36.772Z,51.46
2023-05-20T01:15:37.075Z,51.46
2023-05-20T01:16:36.776Z,51.47
2023-05-20T01:17:38.097Z,51.46
2023-05-20T01:18:36.680Z,51.49
2023-05-20T01:19:36.633Z,51.47
2023-05-20T01:20:37.619Z,51.45
2023-05-20T01:21:36.604Z,51.51
2023-05-20T01:22:36.636Z,51.49
2023-05-20T01:23:36.824Z,51.51
2023-05-20T01:24:36.578Z,51.51
2023-05-20T01:25:36.962Z,51.51
2023-05-20T01:26:36.580Z,51.48
2023-05-20T01:27:36.721Z,51.47
2023-05-20T01:28:36.650Z,51.50
2023-05-20T01:29:36.556Z,51.48
2023-05-20T01:30:36.682Z,51.50
2023-05-20T01:31:36.606Z,51.49
2023-05-20T01:32:36.721Z,51.52
2023-05-20T01:33:36.534Z,51.55
2023-05-20T01:34:37.568Z,51.49
2023-05-20T01:35:36.896Z,51.48
2023-05-20T01:36:36.540Z,51.52
2023-05-20T01:37:36.496Z,51.50
2023-05-20T01:38:37.482Z,51.53
2023-05-20T01:39:37.716Z,51.53
2023-05-20T01:40:37.627Z,51.53
2023-05-20T01:41:37.463Z,51.52
2023-05-20T01:42:36.459Z,51.52
2023-05-20T01:43:37.622Z,51.49
2023-05-20T01:44:36.453Z,51.51
2023-05-20T01:45:37.480Z,51.51
2023-05-20T01:46:36.485Z,51.52
2023-05-20T01:47:37.522Z,51.53
2023-05-20T01:48:36.606Z,51.54
2023-05-20T01:49:36.572Z,51.53
2023-05-20T01:50:36.570Z,51.52
2023-05-20T01:51:36.509Z,51.51
2023-05-20T01:52:37.490Z,51.52
2023-05-20T01:53:37.487Z,51.55
2023-05-20T01:54:37.536Z,51.51
2023-05-20T01:55:37.442Z,51.51
2023-05-20T01:56:36.408Z,51.51
2023-05-20T01:57:36.563Z,51.51
2023-05-20T01:58:37.474Z,51.50
2023-05-20T01:59:36.456Z,51.52
2023-05-20T02:00:37.475Z,51.50
2023-05-20T02:01:36.474Z,51.51
2023-05-20T02:02:36.732Z,51.51
2023-05-20T02:03:36.502Z,51.49
2023-05-20T02:04:37.645Z,51.48
2023-05-20T02:05:38.225Z,51.48
2023-05-20T02:06:36.561Z,51.51
2023-05-20T02:07:36.738Z,51.50
2023-05-20T02:08:37.715Z,51.53
2023-05-20T02:09:37.636Z,51.53
2023-05-20T02:10:36.603Z,51.49
2023-05-20T02:11:36.604Z,51.51
2023-05-20T02:12:36.651Z,51.55
2023-05-20T02:13:36.733Z,51.53
2023-05-20T02:14:37.653Z,51.53
2023-05-20T02:15:36.785Z,51.53
2023-05-20T02:16:37.810Z,51.55
2023-05-20T02:17:36.839Z,51.53
2023-05-20T02:18:36.788Z,51.56
2023-05-20T02:19:37.729Z,51.54
2023-05-20T02:20:36.736Z,51.54
2023-05-20T02:21:37.989Z,51.55
2023-05-20T02:22:37.778Z,51.52
2023-05-20T02:23:37.789Z,51.55
2023-05-20T02:24:37.954Z,51.57
2023-05-20T02:25:36.877Z,51.54
2023-05-20T02:26:36.955Z,51.55
2023-05-20T02:27:36.847Z,51.53
2023-05-20T02:28:37.998Z,51.51
2023-05-20T02:29:36.870Z,51.57
2023-05-20T02:30:37.881Z,51.56
2023-05-20T02:31:36.917Z,51.54
2023-05-20T02:32:36.951Z,51.56
2023-05-20T02:33:36.981Z,51.57
2023-05-20T02:34:38.087Z,51.56
2023-05-20T02:35:38.093Z,51.55
2023-05-20T02:36:36.970Z,51.56
2023-05-20T02:37:37.023Z,51.57
2023-05-20T02:38:37.039Z,51.57
2023-05-20T02:39:38.202Z,51.59
2023-05-20T02:40:37.308Z,51.55
2023-05-20T02:41:37.098Z,51.57
2023-05-20T02:42:38.099Z,51.59
2023-05-20T02:43:37.114Z,51.57
2023-05-20T02:44:37.239Z,51.59
2023-05-20T02:45:37.244Z,51.55
2023-05-20T02:46:37.188Z,51.55
2023-05-20T02:47:37.240Z,51.59
2023-05-20T02:48:37.210Z,51.57
2023-05-20T02:49:37.261Z,51.55
2023-05-20T02:50:38.392Z,51.55
2023-05-20T02:51:37.257Z,51.54
2023-05-20T02:52:38.256Z,51.56
2023-05-20T02:53:38.265Z,51.55
2023-05-20T02:54:38.259Z,51.58
2023-05-20T02:55:37.278Z,51.57
2023-05-20T02:56:37.282Z,51.56
2023-05-20T02:57:37.293Z,51.60
2023-05-20T02:58:37.320Z,51.56
2023-05-20T02:59:37.321Z,51.60
2023-05-20T03:00:38.350Z,51.62
2023-05-20T03:01:38.485Z,51.59
2023-05-20T03:02:37.398Z,51.57
2023-05-20T03:03:37.354Z,51.62
2023-05-20T03:04:38.734Z,51.59
2023-05-20T03:05:38.389Z,51.59
2023-05-20T03:06:38.673Z,51.59
2023-05-20T03:07:38.549Z,51.58
2023-05-20T03:08:37.525Z,51.59
2023-05-20T03:09:37.503Z,51.55
2023-05-20T03:10:37.516Z,51.57
2023-05-20T03:11:37.582Z,51.59
2023-05-20T03:12:38.609Z,51.60
2023-05-20T03:13:37.650Z,51.59
2023-05-20T03:14:38.751Z,51.58
2023-05-20T03:15:38.654Z,51.56
2023-05-20T03:16:37.637Z,51.56
2023-05-20T03:17:37.896Z,51.56
2023-05-20T03:18:37.682Z,51.56
2023-05-20T03:19:38.687Z,51.56
2023-05-20T03:20:37.870Z,51.56
2023-05-20T03:21:37.813Z,51.59
2023-05-20T03:22:37.846Z,51.59
2023-05-20T03:23:37.929Z,51.59
2023-05-20T03:24:37.789Z,51.57
2023-05-20T03:25:39.036Z,51.57
2023-05-20T03:26:37.819Z,51.58
2023-05-20T03:27:37.850Z,51.58
2023-05-20T03:28:38.953Z,51.55
2023-05-20T03:29:39.101Z,51.56
2023-05-20T03:30:39.168Z,51.56
2023-05-20T03:32:38.004Z,51.55
2023-05-20T03:33:37.998Z,51.56
2023-05-20T03:34:38.015Z,51.56
2023-05-20T03:35:38.047Z,51.57
2023-05-20T03:36:39.081Z,51.55
2023-05-20T03:37:39.098Z,51.57
2023-05-20T03:38:38.365Z,51.56
2023-05-20T03:39:38.114Z,51.58
2023-05-20T03:40:39.247Z,51.57
2023-05-20T03:41:38.439Z,51.57
2023-05-20T03:42:38.389Z,51.56
2023-05-20T03:43:38.489Z,51.58
2023-05-20T03:44:38.339Z,51.57
2023-05-20T03:45:38.277Z,51.57
2023-05-20T03:46:38.581Z,51.59
2023-05-20T03:47:38.351Z,51.56
2023-05-20T03:48:39.389Z,51.59
2023-05-20T03:49:39.472Z,51.59
2023-05-20T03:50:39.600Z,51.58
2023-05-20T03:51:38.436Z,51.58
2023-05-20T03:52:38.490Z,51.56
2023-05-20T03:53:38.620Z,51.59
2023-05-20T03:54:38.710Z,51.59
2023-05-20T03:55:38.621Z,51.58
2023-05-20T03:56:38.686Z,51.60
2023-05-20T03:57:38.745Z,51.57
2023-05-20T03:58:38.830Z,51.57
2023-05-20T03:59:39.904Z,51.58
2023-05-20T04:00:39.669Z,51.55
2023-05-20T04:01:38.721Z,51.55
2023-05-20T04:02:39.903Z,51.56
2023-05-20T04:03:39.801Z,51.55
2023-05-20T04:04:38.768Z,51.53
2023-05-20T04:05:38.832Z,51.55
2023-05-20T04:06:38.803Z,51.56
2023-05-20T04:07:39.921Z,51.60
2023-05-20T04:08:38.845Z,51.55
2023-05-20T04:09:39.918Z,51.56
2023-05-20T04:10:40.190Z,51.55
2023-05-20T04:11:40.105Z,51.56
2023-05-20T04:12:40.066Z,51.55
2023-05-20T04:13:39.190Z,51.57
2023-05-20T04:14:40.121Z,51.58
2023-05-20T04:15:39.328Z,51.55
2023-05-20T04:16:39.155Z,51.55
2023-05-20T04:17:40.136Z,51.56
2023-05-20T04:18:39.416Z,51.54
2023-05-20T04:19:39.178Z,51.55
2023-05-20T04:20:39.377Z,51.55
2023-05-20T04:21:40.414Z,51.55
2023-05-20T04:22:39.252Z,51.57
2023-05-20T04:23:39.301Z,51.58
2023-05-20T04:24:39.341Z,51.59
2023-05-20T04:25:39.726Z,51.55
2023-05-20T04:26:39.494Z,51.56
2023-05-20T04:27:39.435Z,51.58
2023-05-20T04:28:39.622Z,51.56
2023-05-20T04:29:39.692Z,51.57
2023-05-20T04:30:39.542Z,51.60
2023-05-20T04:31:39.744Z,51.62
2023-05-20T04:32:40.589Z,51.57
2023-05-20T04:33:40.710Z,51.58
2023-05-20T04:34:39.839Z,51.56
2023-05-20T04:35:40.680Z,51.61
2023-05-20T04:36:40.795Z,51.55
2023-05-20T04:37:39.737Z,51.58
2023-05-20T04:38:39.753Z,51.56
2023-05-20T04:39:40.776Z,51.59
2023-05-20T04:40:40.830Z,51.57
2023-05-20T04:41:40.100Z,51.56
2023-05-20T04:42:39.878Z,51.54
2023-05-20T04:43:40.892Z,51.54
2023-05-20T04:44:42.236Z,51.59
2023-05-20T04:45:40.084Z,51.57
2023-05-20T04:46:40.060Z,51.54
2023-05-20T04:47:40.149Z,51.56
2023-05-20T04:48:40.001Z,51.55
2023-05-20T04:49:40.091Z,51.57
2023-05-20T04:50:40.096Z,51.58
2023-05-20T04:51:40.353Z,51.60
2023-05-20T04:52:41.209Z,51.60
2023-05-20T04:53:40.201Z,51.55
2023-05-20T04:54:40.160Z,51.53
2023-05-20T04:55:40.268Z,51.55
2023-05-20T04:56:40.198Z,51.54
2023-05-20T04:57:41.445Z,51.55
2023-05-20T04:58:41.501Z,51.58
2023-05-20T04:59:41.486Z,51.60
2023-05-20T05:00:40.333Z,51.57
2023-05-20T05:01:41.407Z,51.57
2023-05-20T05:02:40.662Z,51.56
2023-05-20T05:03:40.520Z,51.58
2023-05-20T05:04:40.450Z,51.54
2023-05-20T05:05:40.425Z,51.58
2023-05-20T05:06:41.486Z,51.58
2023-05-20T05:07:40.597Z,51.56
2023-05-20T05:08:41.529Z,51.55
2023-05-20T05:09:41.715Z,51.59
2023-05-20T05:10:40.596Z,51.57
2023-05-20T05:11:40.630Z,51.56
2023-05-20T05:12:41.647Z,51.58
2023-05-20T05:13:40.772Z,51.53
2023-05-20T05:14:41.788Z,51.58
2023-05-20T05:15:40.755Z,51.53
2023-05-20T05:16:41.783Z,51.54
2023-05-20T05:17:41.858Z,51.54
2023-05-20T05:18:40.900Z,51.53
2023-05-20T05:19:40.878Z,51.56
2023-05-20T05:20:41.021Z,51.54
2023-05-20T05:21:41.990Z,51.52
2023-05-20T05:22:40.962Z,51.52
2023-05-20T05:23:40.991Z,51.53
2023-05-20T05:24:42.221Z,51.51
2023-05-20T05:25:42.077Z,51.51
2023-05-20T05:26:42.146Z,51.52
2023-05-20T05:27:41.264Z,51.50
2023-05-20T05:28:41.320Z,51.53
2023-05-20T05:29:42.211Z,51.51
2023-05-20T05:30:41.482Z,51.51
2023-05-20T05:31:41.434Z,51.52
2023-05-20T05:32:42.395Z,51.48
2023-05-20T05:33:41.296Z,51.52
2023-05-20T05:34:41.327Z,51.51
2023-05-20T05:35:41.360Z,51.49
2023-05-20T05:36:42.378Z,51.45
2023-05-20T05:37:42.391Z,51.49
2023-05-20T05:38:42.418Z,51.47
2023-05-20T05:39:42.463Z,51.46
2023-05-20T05:40:41.454Z,51.45
2023-05-20T05:41:42.512Z,51.46
2023-05-20T05:42:41.535Z,51.45
2023-05-20T05:43:42.509Z,51.46
2023-05-20T05:44:42.572Z,51.48
2023-05-20T05:45:42.607Z,51.47
2023-05-20T05:46:41.630Z,51.48
2023-05-20T05:47:42.708Z,51.48
2023-05-20T05:48:41.786Z,51.48
2023-05-20T05:49:41.617Z,51.47
2023-05-20T05:50:41.804Z,51.45
2023-05-20T05:51:42.672Z,51.48
2023-05-20T05:52:41.784Z,51.46
2023-05-20T05:53:41.748Z,51.44
2023-05-20T05:54:41.819Z,51.45
2023-05-20T05:55:42.741Z,51.44
2023-05-20T05:56:42.744Z,51.47
2023-05-20T05:57:41.788Z,51.42
2023-05-20T05:58:42.048Z,51.43
2023-05-20T05:59:41.847Z,51.46
2023-05-20T06:00:41.870Z,51.41
2023-05-20T06:01:42.101Z,51.42
2023-05-20T06:02:43.208Z,51.40
2023-05-20T06:03:42.074Z,51.42
2023-05-20T06:04:42.078Z,51.42
2023-05-20T06:05:42.976Z,51.42
2023-05-20T06:06:42.959Z,51.41
2023-05-20T06:07:42.052Z,51.39
2023-05-20T06:08:42.132Z,51.41
2023-05-20T06:09:43.152Z,51.39
2023-05-20T06:10:42.157Z,51.40
2023-05-20T06:11:42.169Z,51.40
2023-05-20T06:12:43.376Z,51.39
2023-05-20T06:13:43.152Z,51.39
2023-05-20T06:14:42.202Z,51.38
2023-05-20T06:15:43.152Z,51.38
2023-05-20T06:16:43.268Z,51.36
2023-05-20T06:17:42.405Z,51.36
2023-05-20T06:18:43.346Z,51.37
2023-05-20T06:19:42.492Z,51.37
2023-05-20T06:20:42.288Z,51.35
2023-05-20T06:21:43.283Z,51.31
2023-05-20T06:22:43.471Z,51.35
2023-05-20T06:23:42.302Z,51.32
2023-05-20T06:24:42.327Z,51.34
2023-05-20T06:25:42.454Z,51.30
2023-05-20T06:26:43.567Z,51.33
2023-05-20T06:27:43.595Z,51.31
2023-05-20T06:28:42.400Z,51.32
2023-05-20T06:29:43.874Z,51.32
2023-05-20T06:30:42.724Z,51.30
2023-05-20T06:31:43.668Z,51.30
2023-05-20T06:32:43.477Z,51.27
2023-05-20T06:33:43.466Z,51.29
2023-05-20T06:34:42.612Z,51.26
2023-05-20T06:35:42.601Z,51.26
2023-05-20T06:36:42.754Z,51.26
2023-05-20T06:37:42.548Z,51.25
2023-05-20T06:38:43.630Z,51.25
2023-05-20T06:39:42.588Z,51.24
2023-05-20T06:40:43.569Z,51.23
2023-05-20T06:41:43.597Z,51.24
2023-05-20T06:42:42.679Z,51.22
2023-05-20T06:43:43.689Z,51.21
2023-05-20T06:44:43.766Z,51.20
2023-05-20T06:45:42.792Z,51.18
2023-05-20T06:46:43.735Z,51.17
2023-05-20T06:47:43.818Z,51.18
2023-05-20T06:48:42.858Z,51.19
2023-05-20T06:49:45.058Z,51.20
2023-05-20T06:50:42.701Z,51.18
2023-05-20T06:51:42.714Z,51.19
2023-05-20T06:52:43.663Z,51.19
2023-05-20T06:53:43.737Z,51.16
2023-05-20T06:54:42.685Z,51.15
2023-05-20T06:55:42.838Z,51.14
2023-05-20T06:56:42.554Z,51.14
2023-05-20T06:57:42.643Z,51.14
2023-05-20T06:58:43.584Z,51.12
2023-05-20T06:59:43.530Z,51.10
2023-05-20T07:00:43.692Z,51.13
2023-05-20T07:01:43.605Z,51.11
2023-05-20T07:02:42.543Z,51.14
2023-05-20T07:03:43.537Z,51.08
2023-05-20T07:04:43.503Z,51.12
2023-05-20T07:05:43.473Z,51.10
2023-05-20T07:06:43.518Z,51.10
2023-05-20T07:07:42.679Z,51.07
2023-05-20T07:08:43.481Z,51.10
2023-05-20T07:09:43.444Z,51.07
2023-05-20T07:10:42.509Z,51.08
2023-05-20T07:11:43.676Z,51.08
2023-05-20T07:12:42.427Z,51.11
2023-05-20T07:13:42.433Z,51.07
2023-05-20T07:14:43.431Z,51.06
2023-05-20T07:15:43.485Z,51.05
2023-05-20T07:16:42.612Z,51.04
2023-05-20T07:17:42.500Z,51.06
2023-05-20T07:18:42.539Z,51.06
2023-05-20T07:19:42.427Z,51.05
2023-05-20T07:20:42.514Z,51.04
2023-05-20T07:21:42.650Z,51.04
2023-05-20T07:22:42.632Z,51.06
2023-05-20T07:23:42.343Z,51.05
2023-05-20T07:24:42.452Z,51.03
2023-05-20T07:25:42.596Z,51.04
2023-05-20T07:26:43.375Z,51.02
2023-05-20T07:27:43.317Z,51.01
2023-05-20T07:28:43.426Z,51.01
2023-05-20T07:29:43.474Z,51.02
2023-05-20T07:30:42.464Z,50.99
2023-05-20T07:31:43.441Z,50.97
2023-05-20T07:32:43.316Z,50.97
2023-05-20T07:33:42.550Z,50.96
2023-05-20T07:34:43.518Z,50.98
2023-05-20T07:35:43.302Z,50.96
2023-05-20T07:36:42.245Z,50.96
2023-05-20T07:37:43.251Z,50.96
2023-05-20T07:38:56.541Z,50.93
2023-05-20T07:39:43.401Z,50.98
2023-05-20T07:40:42.271Z,50.97
2023-05-20T07:41:43.510Z,50.96
2023-05-20T07:42:43.244Z,50.94
2023-05-20T07:43:43.260Z,50.97
2023-05-20T07:44:42.398Z,50.96
2023-05-20T07:45:42.456Z,50.96
2023-05-20T07:46:43.540Z,50.93
2023-05-20T07:47:43.213Z,50.96
2023-05-20T07:48:42.171Z,50.96
2023-05-20T07:49:42.352Z,50.92
2023-05-20T07:50:42.213Z,50.92
2023-05-20T07:51:42.492Z,50.92
2023-05-20T07:52:55.386Z,50.94
2023-05-20T07:53:43.347Z,50.94
2023-05-20T07:54:42.391Z,50.93
2023-05-20T07:55:42.333Z,50.93
2023-05-20T07:56:43.415Z,50.89
2023-05-20T07:57:44.877Z,50.90
2023-05-20T07:58:42.150Z,50.91
2023-05-20T07:59:42.091Z,50.90
2023-05-20T08:00:42.272Z,50.89
2023-05-20T08:01:42.252Z,50.88
2023-05-20T08:02:42.364Z,50.87
2023-05-20T08:03:43.411Z,50.88
2023-05-20T08:04:42.121Z,50.89
2023-05-20T08:05:42.046Z,50.87
2023-05-20T08:06:42.230Z,50.86
2023-05-20T08:07:42.103Z,50.85
2023-05-20T08:08:43.063Z,50.87
2023-05-20T08:09:42.150Z,50.85
2023-05-20T08:10:42.246Z,50.84
2023-05-20T08:11:42.034Z,50.84
2023-05-20T08:12:43.091Z,50.84
2023-05-20T08:13:43.048Z,50.84
2023-05-20T08:14:41.988Z,50.80
2023-05-20T08:15:42.037Z,50.82
2023-05-20T08:16:43.073Z,50.82
2023-05-20T08:17:42.115Z,50.82
2023-05-20T08:18:42.097Z,50.82
2023-05-20T08:19:41.985Z,50.78
2023-05-20T08:20:43.039Z,50.81
2023-05-20T08:21:43.058Z,50.79
2023-05-20T08:22:42.203Z,50.82
2023-05-20T08:23:43.187Z,50.78
2023-05-20T08:24:43.257Z,50.80
2023-05-20T08:25:43.505Z,50.78
2023-05-20T08:26:42.448Z,50.78
2023-05-20T08:27:42.510Z,50.78
2023-05-20T08:28:43.696Z,50.79
2023-05-20T08:29:42.626Z,50.77
2023-05-20T08:30:42.690Z,50.78
2023-05-20T08:31:42.766Z,50.76
2023-05-20T08:32:42.737Z,50.74
2023-05-20T08:33:43.780Z,50.74
2023-05-20T08:34:42.816Z,50.78
2023-05-20T08:35:42.827Z,50.75
2023-05-20T08:36:43.883Z,50.73
2023-05-20T08:37:43.933Z,50.74
2023-05-20T08:41:21.626Z,52.22
2023-05-20T08:42:21.732Z,51.07
2023-05-20T08:43:22.511Z,51.00
2023-05-20T08:44:22.565Z,50.93
2023-05-20T08:45:22.747Z,50.88
2023-05-20T08:46:22.892Z,50.85
2023-05-20T08:47:22.752Z,50.85
2023-05-20T08:48:21.791Z,50.80
2023-05-20T08:49:22.642Z,50.76
2023-05-20T08:50:21.705Z,50.81
2023-05-20T08:51:23.616Z,50.78
2023-05-20T08:54:50.883Z,50.93
2023-05-20T08:55:52.008Z,50.88
2023-05-20T08:56:51.896Z,50.83
2023-05-20T08:57:50.930Z,50.80
2023-05-20T08:58:51.871Z,50.76
2023-05-20T08:59:51.957Z,50.76
2023-05-20T09:00:51.055Z,50.74
2023-05-20T09:01:50.959Z,50.76
2023-05-20T09:02:50.891Z,50.74
2023-05-20T09:03:51.851Z,50.74
2023-05-20T09:04:51.834Z,50.70
2023-05-20T09:05:50.817Z,50.71
2023-05-20T09:06:50.815Z,50.70
2023-05-20T09:07:50.785Z,50.71
2023-05-20T09:08:51.889Z,50.72
2023-05-20T09:09:51.996Z,50.71
2023-05-20T09:10:51.939Z,50.68
2023-05-20T09:11:50.808Z,50.70
2023-05-20T09:12:50.792Z,50.67
2023-05-20T09:13:50.911Z,50.68
2023-05-20T09:14:51.754Z,50.67
2023-05-20T09:15:51.017Z,50.67
2023-05-20T09:16:50.860Z,50.69
2023-05-20T09:17:50.810Z,50.69
2023-05-20T09:18:50.769Z,50.66
2023-05-20T09:19:51.829Z,50.66
2023-05-20T09:20:51.764Z,50.66
2023-05-20T09:21:51.956Z,50.63
2023-05-20T09:22:52.010Z,50.66
2023-05-20T09:23:51.131Z,50.65
2023-05-20T09:24:51.001Z,50.61
2023-05-20T09:25:51.018Z,50.60
2023-05-20T09:26:52.114Z,50.63
2023-05-20T09:27:51.189Z,50.60
2023-05-20T09:28:51.319Z,50.63
2023-05-20T09:29:51.319Z,50.63
2023-05-20T09:30:51.260Z,50.61
2023-05-20T09:31:51.357Z,50.62
2023-05-20T09:32:52.441Z,50.58
2023-05-20T09:33:51.524Z,50.62
2023-05-20T09:34:51.493Z,50.60
2023-05-20T09:35:51.608Z,50.59
2023-05-20T09:36:52.579Z,50.59
2023-05-20T09:37:51.864Z,50.58
2023-05-20T09:38:52.659Z,50.59
2023-05-20T09:39:51.695Z,50.59
2023-05-20T09:40:51.873Z,50.57
2023-05-20T09:41:51.904Z,50.57
2023-05-20T09:42:51.838Z,50.58
2023-05-20T09:43:52.899Z,50.53
2023-05-20T09:44:53.018Z,50.58
2023-05-20T09:45:52.108Z,50.55
2023-05-20T09:46:52.020Z,50.56
2023-05-20T09:47:53.515Z,50.55
2023-05-20T09:48:52.105Z,50.55
2023-05-20T09:49:52.415Z,50.56
2023-05-20T09:50:52.199Z,50.52
2023-05-20T09:51:53.275Z,50.50
2023-05-20T09:52:52.300Z,50.54
2023-05-20T09:53:52.528Z,50.56
2023-05-20T09:54:53.378Z,50.51
2023-05-20T09:55:53.512Z,50.54
2023-05-20T09:56:52.665Z,50.51
2023-05-20T09:57:52.524Z,50.49
2023-05-20T09:58:53.624Z,50.51
2023-05-20T09:59:52.619Z,50.52
2023-05-20T10:00:52.677Z,50.51
2023-05-20T10:01:52.968Z,50.51
2023-05-20T10:02:54.119Z,50.51
2023-05-20T10:03:52.844Z,50.48
2023-05-20T10:04:52.864Z,50.52
2023-05-20T10:05:53.951Z,50.49
2023-05-20T10:06:53.914Z,50.50
2023-05-20T10:07:52.993Z,50.49
2023-05-20T10:08:54.123Z,50.51
2023-05-20T10:09:53.161Z,50.51
2023-05-20T10:10:54.094Z,50.50
2023-05-20T10:11:53.050Z,50.51
2023-05-20T10:12:54.265Z,50.48
2023-05-20T10:13:53.071Z,50.50
2023-05-20T10:14:54.130Z,50.51
2023-05-20T10:15:53.177Z,50.49
2023-05-20T10:16:54.372Z,50.48
2023-05-20T10:17:54.465Z,50.48
2023-05-20T10:18:53.289Z,50.51
2023-05-20T10:19:54.294Z,50.43
2023-05-20T10:20:53.314Z,50.48
2023-05-20T10:21:53.365Z,50.47
2023-05-20T10:22:53.545Z,50.48
2023-05-20T10:23:53.474Z,50.46
2023-05-20T10:24:53.472Z,50.46
2023-05-20T10:25:54.496Z,50.49
2023-05-20T10:26:54.525Z,50.44
2023-05-20T10:27:54.570Z,50.45
2023-05-20T10:28:53.603Z,50.47
2023-05-20T10:29:53.641Z,50.49
2023-05-20T10:30:54.685Z,50.45
2023-05-20T10:31:54.745Z,50.47
2023-05-20T10:32:53.981Z,50.43
2023-05-20T10:33:53.803Z,50.44
2023-05-20T10:34:54.840Z,50.45
2023-05-20T10:35:53.881Z,50.45
2023-05-20T10:36:54.602Z,50.47
2023-05-20T10:37:55.069Z,50.45
2023-05-20T10:38:54.100Z,50.46
2023-05-20T10:39:54.019Z,50.44
2023-05-20T10:40:54.115Z,50.42
2023-05-20T10:41:54.192Z,50.44
2023-05-20T10:42:55.159Z,50.44
2023-05-20T10:43:55.189Z,50.44
2023-05-20T10:44:54.230Z,50.43
2023-05-20T10:45:54.268Z,50.43
2023-05-20T10:47:55.483Z,50.41
2023-05-20T10:48:54.458Z,50.42
2023-05-20T10:49:55.278Z,50.44
2023-05-20T10:50:55.318Z,50.42
2023-05-20T10:51:55.251Z,50.40
2023-05-20T10:52:54.547Z,50.44
2023-05-20T10:53:55.374Z,50.44
2023-05-20T10:54:54.238Z,50.41
2023-05-20T10:55:55.229Z,50.41
2023-05-20T10:56:54.454Z,50.42
2023-05-20T10:57:54.353Z,50.40
2023-05-20T10:58:55.191Z,50.41
2023-05-20T10:59:54.209Z,50.43
2023-05-20T11:00:54.268Z,50.41
2023-05-20T11:01:55.285Z,50.41
2023-05-20T11:02:55.458Z,50.41
2023-05-20T11:03:55.379Z,50.40
2023-05-20T11:04:55.531Z,50.40
2023-05-20T11:05:54.488Z,50.38
2023-05-20T11:06:54.667Z,50.37
2023-05-20T11:07:55.452Z,50.39
2023-05-20T11:08:54.598Z,50.38
2023-05-20T11:09:55.585Z,50.37
2023-05-20T11:10:54.647Z,50.39
2023-05-20T11:11:54.561Z,50.36
2023-05-20T11:12:54.650Z,50.38
2023-05-20T11:13:54.785Z,50.40
2023-05-20T11:14:55.770Z,50.39
2023-05-20T11:15:55.761Z,50.38
2023-05-20T11:16:54.768Z,50.36
2023-05-20T11:17:55.706Z,50.38
2023-05-20T11:18:54.808Z,50.37
2023-05-20T11:19:54.687Z,50.36
2023-05-20T11:20:55.743Z,50.37
2023-05-20T11:21:54.833Z,50.34
2023-05-20T11:22:54.756Z,50.35
2023-05-20T11:23:54.776Z,50.34
2023-05-20T11:24:54.894Z,50.35
2023-05-20T11:25:54.833Z,50.34
2023-05-20T11:26:55.947Z,50.31
2023-05-20T11:27:55.041Z,50.32
2023-05-20T11:28:54.889Z,50.31
2023-05-20T11:29:55.967Z,50.32
2023-05-20T11:30:55.034Z,50.29
2023-05-20T11:31:55.046Z,50.31
2023-05-20T11:32:56.169Z,50.29
2023-05-20T11:33:56.026Z,50.29
2023-05-20T11:34:55.230Z,50.29
2023-05-20T11:35:55.299Z,50.28
2023-05-20T11:36:56.148Z,50.29
2023-05-20T11:37:55.299Z,50.28
2023-05-20T11:38:55.200Z,50.27
2023-05-20T11:39:56.143Z,50.26
2023-05-20T11:40:56.831Z,50.28
2023-05-20T11:41:56.415Z,50.28
2023-05-20T11:42:56.274Z,50.26
2023-05-20T11:43:56.398Z,50.25
2023-05-20T11:44:56.257Z,50.25
2023-05-20T11:45:55.358Z,50.28
2023-05-20T11:46:56.541Z,50.22
2023-05-20T11:47:56.413Z,50.24
2023-05-20T11:48:55.340Z,50.23
2023-05-20T11:49:55.341Z,50.22
2023-05-20T11:50:56.387Z,50.23
2023-05-20T11:51:55.615Z,50.22
2023-05-20T11:52:55.505Z,50.22
2023-05-20T11:53:55.401Z,50.23
2023-05-20T11:54:56.411Z,50.23
2023-05-20T11:55:55.484Z,50.21
2023-05-20T11:56:56.430Z,50.20
2023-05-20T11:57:56.455Z,50.22
2023-05-20T11:58:55.508Z,50.20
2023-05-20T11:59:56.483Z,50.21
2023-05-20T12:01:02.306Z,50.20
2023-05-20T12:01:56.483Z,50.20
2023-05-20T12:02:56.530Z,50.22
2023-05-20T12:03:55.711Z,50.22
2023-05-20T12:04:56.909Z,50.20
2023-05-20T12:05:55.448Z,50.21
2023-05-20T12:06:55.436Z,50.20
2023-05-20T12:07:56.689Z,50.22
2023-05-20T12:08:55.504Z,50.17
2023-05-20T12:09:56.427Z,50.21
2023-05-20T12:10:55.498Z,50.17
2023-05-20T12:11:55.562Z,50.18
2023-05-20T12:12:55.391Z,50.17
2023-05-20T12:13:56.397Z,50.19
2023-05-20T12:14:56.564Z,50.18
2023-05-20T12:15:55.495Z,50.18
2023-05-20T12:16:55.364Z,50.20
2023-05-20T12:17:56.443Z,50.17
2023-05-20T12:18:55.395Z,50.17
2023-05-20T12:19:55.485Z,50.15
2023-05-20T12:20:55.495Z,50.17
2023-05-20T12:21:56.354Z,50.20
2023-05-20T12:22:55.330Z,50.17
2023-05-20T12:23:56.351Z,50.16
2023-05-20T12:24:56.356Z,50.16
2023-05-20T12:25:56.498Z,50.16
2023-05-20T12:26:56.318Z,50.18
2023-05-20T12:27:56.445Z,50.16
2023-05-20T12:28:56.332Z,50.15
2023-05-20T12:29:55.520Z,50.15
2023-05-20T12:30:56.551Z,50.17
2023-05-20T12:31:55.314Z,50.18
2023-05-20T12:32:55.306Z,50.11
2023-05-20T12:33:56.432Z,50.16
2023-05-20T12:34:56.258Z,50.17
2023-05-20T12:35:56.237Z,50.13
2023-05-20T12:36:56.433Z,50.12
2023-05-20T12:37:55.398Z,50.15
2023-05-20T12:38:56.454Z,50.15
2023-05-20T12:39:56.230Z,50.13
2023-05-20T12:40:56.232Z,50.16
2023-05-20T12:41:56.437Z,50.13
2023-05-20T12:42:55.300Z,50.15
2023-05-20T12:43:55.247Z,50.15
2023-05-20T12:44:56.400Z,50.12
2023-05-20T12:45:55.288Z,50.14
2023-05-20T12:46:55.407Z,50.14
2023-05-20T12:47:55.403Z,50.11
2023-05-20T12:48:55.182Z,50.11
2023-05-20T12:49:56.226Z,50.10
2023-05-20T12:50:56.156Z,50.12
2023-05-20T12:51:55.267Z,50.10
2023-05-20T12:52:56.291Z,50.11
2023-05-20T12:53:56.161Z,50.12
2023-05-20T12:54:56.224Z,50.12
2023-05-20T12:55:55.174Z,50.10
2023-05-20T12:56:56.136Z,50.10
2023-05-20T12:57:55.086Z,50.10
2023-05-20T12:58:55.093Z,50.05
2023-05-20T12:59:55.180Z,50.12
2023-05-20T13:00:55.109Z,50.08